sensor_id;sensor_type;location;lat;lon;timestamp;pressure;altitude;pressure_sealevel;temperature;humidity
50292;BME280;36190;54.980;73.388;2023-04-22T00:00:05;100808.34;;;3.55;55.99
50292;BME280;36190;54.980;73.388;2023-04-22T00:02:34;100825.78;;;3.57;55.92
50292;BME280;36190;54.980;73.388;2023-04-22T00:05:03;100819.63;;;3.57;55.90
50292;BME280;36190;54.980;73.388;2023-04-22T00:07:33;100841.59;;;3.57;56.03
50292;BME280;36190;54.980;73.388;2023-04-22T00:10:00;100826.81;;;3.55;56.19
50292;BME280;36190;54.980;73.388;2023-04-22T00:12:28;100833.06;;;3.54;56.36
50292;BME280;36190;54.980;73.388;2023-04-22T00:14:56;100822.84;;;3.49;56.43
50292;BME280;36190;54.980;73.388;2023-04-22T00:17:24;100829.06;;;3.48;56.60
50292;BME280;36190;54.980;73.388;2023-04-22T00:19:51;100823.66;;;3.50;56.58
50292;BME280;36190;54.980;73.388;2023-04-22T00:22:19;100821.16;;;3.48;56.77
50292;BME280;36190;54.980;73.388;2023-04-22T00:24:48;100819.25;;;3.50;56.95
50292;BME280;36190;54.980;73.388;2023-04-22T00:27:15;100822.59;;;3.52;56.91
50292;BME280;36190;54.980;73.388;2023-04-22T00:29:42;100813.75;;;3.53;56.81
50292;BME280;36190;54.980;73.388;2023-04-22T00:32:10;100807.50;;;3.54;57.02
50292;BME280;36190;54.980;73.388;2023-04-22T00:34:37;100816.16;;;3.56;57.07
50292;BME280;36190;54.980;73.388;2023-04-22T00:37:05;100820.50;;;3.57;57.17
50292;BME280;36190;54.980;73.388;2023-04-22T00:39:33;100822.16;;;3.58;57.16
50292;BME280;36190;54.980;73.388;2023-04-22T00:42:05;100831.53;;;3.63;57.53
50292;BME280;36190;54.980;73.388;2023-04-22T00:44:34;100810.38;;;3.51;57.32
50292;BME280;36190;54.980;73.388;2023-04-22T00:47:02;100839.38;;;3.76;57.22
50292;BME280;36190;54.980;73.388;2023-04-22T00:49:30;100839.63;;;3.72;57.27
50292;BME280;36190;54.980;73.388;2023-04-22T00:51:58;100842.50;;;3.69;57.39
50292;BME280;36190;54.980;73.388;2023-04-22T00:54:25;100843.56;;;3.67;57.58
50292;BME280;36190;54.980;73.388;2023-04-22T00:56:53;100837.44;;;3.66;57.75
50292;BME280;36190;54.980;73.388;2023-04-22T00:59:24;100845.34;;;3.66;57.97
50292;BME280;36190;54.980;73.388;2023-04-22T01:01:53;100845.97;;;3.70;58.03
50292;BME280;36190;54.980;73.388;2023-04-22T01:04:20;100849.34;;;3.72;58.09
50292;BME280;36190;54.980;73.388;2023-04-22T01:06:50;100842.16;;;3.74;58.22
50292;BME280;36190;54.980;73.388;2023-04-22T01:09:18;100845.53;;;3.76;58.03
50292;BME280;36190;54.980;73.388;2023-04-22T01:11:46;100841.94;;;3.77;58.09
50292;BME280;36190;54.980;73.388;2023-04-22T01:14:14;100847.22;;;3.77;58.25
50292;BME280;36190;54.980;73.388;2023-04-22T01:16:44;100857.75;;;3.77;58.64
50292;BME280;36190;54.980;73.388;2023-04-22T01:19:13;100855.63;;;3.82;58.41
50292;BME280;36190;54.980;73.388;2023-04-22T01:21:42;100864.28;;;3.84;58.56
50292;BME280;36190;54.980;73.388;2023-04-22T01:24:12;100863.44;;;3.84;58.54
50292;BME280;36190;54.980;73.388;2023-04-22T01:26:40;100867.16;;;3.81;58.45
50292;BME280;36190;54.980;73.388;2023-04-22T01:29:08;100853.97;;;3.81;58.59
50292;BME280;36190;54.980;73.388;2023-04-22T01:31:36;100858.38;;;3.81;58.73
50292;BME280;36190;54.980;73.388;2023-04-22T01:34:04;100850.47;;;3.81;58.97
50292;BME280;36190;54.980;73.388;2023-04-22T01:36:32;100850.03;;;3.87;58.95
50292;BME280;36190;54.980;73.388;2023-04-22T01:39:00;100837.91;;;3.96;59.09
50292;BME280;36190;54.980;73.388;2023-04-22T01:41:29;100836.03;;;3.98;58.94
50292;BME280;36190;54.980;73.388;2023-04-22T01:43:57;100836.03;;;3.98;59.03
50292;BME280;36190;54.980;73.388;2023-04-22T01:46:24;100835.06;;;3.99;59.06
50292;BME280;36190;54.980;73.388;2023-04-22T01:48:52;100835.06;;;3.99;59.25
50292;BME280;36190;54.980;73.388;2023-04-22T01:51:19;100843.25;;;4.07;59.44
50292;BME280;36190;54.980;73.388;2023-04-22T01:53:48;100841.00;;;4.14;59.45
50292;BME280;36190;54.980;73.388;2023-04-22T01:56:16;100834.28;;;4.21;59.39
50292;BME280;36190;54.980;73.388;2023-04-22T01:58:45;100845.00;;;4.31;59.59
50292;BME280;36190;54.980;73.388;2023-04-22T02:01:13;100829.44;;;4.39;59.48
50292;BME280;36190;54.980;73.388;2023-04-22T02:03:40;100822.94;;;4.44;59.57
50292;BME280;36190;54.980;73.388;2023-04-22T02:06:08;100838.56;;;4.47;59.45
50292;BME280;36190;54.980;73.388;2023-04-22T02:08:35;100837.59;;;4.48;59.35
50292;BME280;36190;54.980;73.388;2023-04-22T02:11:03;100829.94;;;4.56;59.43
50292;BME280;36190;54.980;73.388;2023-04-22T02:13:34;100816.72;;;4.56;59.53
50292;BME280;36190;54.980;73.388;2023-04-22T02:16:04;100841.47;;;4.78;59.17
50292;BME280;36190;54.980;73.388;2023-04-22T02:18:31;100847.84;;;4.87;59.04
50292;BME280;36190;54.980;73.388;2023-04-22T02:20:59;100842.19;;;4.91;58.84
50292;BME280;36190;54.980;73.388;2023-04-22T02:23:26;100840.16;;;4.95;58.92
50292;BME280;36190;54.980;73.388;2023-04-22T02:25:54;100837.25;;;4.98;58.74
50292;BME280;36190;54.980;73.388;2023-04-22T02:28:22;100837.72;;;5.15;58.65
50292;BME280;36190;54.980;73.388;2023-04-22T02:30:49;100844.09;;;5.35;58.41
50292;BME280;36190;54.980;73.388;2023-04-22T02:33:18;100847.56;;;5.47;58.03
50292;BME280;36190;54.980;73.388;2023-04-22T02:35:46;100847.53;;;5.58;57.91
50292;BME280;36190;54.980;73.388;2023-04-22T02:38:13;100844.47;;;5.74;57.77
50292;BME280;36190;54.980;73.388;2023-04-22T02:40:41;100845.75;;;5.91;57.31
50292;BME280;36190;54.980;73.388;2023-04-22T02:43:08;100840.19;;;5.95;57.21
50292;BME280;36190;54.980;73.388;2023-04-22T02:45:36;100846.72;;;5.90;57.19
50292;BME280;36190;54.980;73.388;2023-04-22T02:48:03;100849.59;;;5.87;57.19
50292;BME280;36190;54.980;73.388;2023-04-22T02:50:32;100855.25;;;5.94;57.03
50292;BME280;36190;54.980;73.388;2023-04-22T02:53:00;100851.25;;;6.00;56.87
50292;BME280;36190;54.980;73.388;2023-04-22T02:55:27;100858.34;;;6.11;56.77
50292;BME280;36190;54.980;73.388;2023-04-22T02:57:55;100846.19;;;6.29;56.75
50292;BME280;36190;54.980;73.388;2023-04-22T03:00:22;100847.63;;;6.55;56.05
50292;BME280;36190;54.980;73.388;2023-04-22T03:02:49;100841.91;;;6.81;55.61
50292;BME280;36190;54.980;73.388;2023-04-22T03:05:17;100844.78;;;6.99;55.25
50292;BME280;36190;54.980;73.388;2023-04-22T03:07:46;100827.16;;;6.98;55.32
50292;BME280;36190;54.980;73.388;2023-04-22T03:10:14;100811.78;;;6.92;55.10
50292;BME280;36190;54.980;73.388;2023-04-22T03:12:41;100802.22;;;6.79;55.29
50292;BME280;36190;54.980;73.388;2023-04-22T03:15:09;100841.72;;;6.72;55.33
50292;BME280;36190;54.980;73.388;2023-04-22T03:17:37;100861.25;;;6.71;55.82
50292;BME280;36190;54.980;73.388;2023-04-22T03:20:05;100845.59;;;6.68;55.81
50292;BME280;36190;54.980;73.388;2023-04-22T03:22:33;100850.78;;;6.70;55.74
50292;BME280;36190;54.980;73.388;2023-04-22T03:25:02;100850.50;;;6.73;55.62
50292;BME280;36190;54.980;73.388;2023-04-22T03:27:31;100837.16;;;6.84;55.63
50292;BME280;36190;54.980;73.388;2023-04-22T03:29:58;100840.28;;;6.99;55.04
50292;BME280;36190;54.980;73.388;2023-04-22T03:32:25;100846.78;;;7.26;54.88
50292;BME280;36190;54.980;73.388;2023-04-22T03:34:53;100845.03;;;7.47;54.55
50292;BME280;36190;54.980;73.388;2023-04-22T03:37:20;100860.16;;;7.66;54.06
50292;BME280;36190;54.980;73.388;2023-04-22T03:39:48;100870.09;;;7.83;53.78
50292;BME280;36190;54.980;73.388;2023-04-22T03:42:17;100853.06;;;7.96;53.49
50292;BME280;36190;54.980;73.388;2023-04-22T03:44:44;100858.66;;;8.03;52.97
50292;BME280;36190;54.980;73.388;2023-04-22T03:47:12;100853.19;;;7.94;52.80
50292;BME280;36190;54.980;73.388;2023-04-22T03:49:39;100856.97;;;7.82;53.20
50292;BME280;36190;54.980;73.388;2023-04-22T03:52:07;100839.59;;;7.68;53.58
50292;BME280;36190;54.980;73.388;2023-04-22T03:54:34;100836.81;;;7.50;53.73
50292;BME280;36190;54.980;73.388;2023-04-22T03:57:02;100846.28;;;7.42;53.78
50292;BME280;36190;54.980;73.388;2023-04-22T03:59:31;100849.50;;;7.56;53.84
50292;BME280;36190;54.980;73.388;2023-04-22T04:01:59;100836.69;;;7.71;53.39
50292;BME280;36190;54.980;73.388;2023-04-22T04:04:27;100849.56;;;7.95;52.95
50292;BME280;36190;54.980;73.388;2023-04-22T04:06:54;100852.78;;;8.09;52.49
50292;BME280;36190;54.980;73.388;2023-04-22T04:09:23;100842.44;;;8.06;52.32
50292;BME280;36190;54.980;73.388;2023-04-22T04:11:50;100842.28;;;8.07;52.43
50292;BME280;36190;54.980;73.388;2023-04-22T04:14:18;100849.13;;;8.20;52.22
50292;BME280;36190;54.980;73.388;2023-04-22T04:16:47;100853.31;;;8.42;51.93
50292;BME280;36190;54.980;73.388;2023-04-22T04:19:14;100851.72;;;8.69;51.57
50292;BME280;36190;54.980;73.388;2023-04-22T04:21:42;100848.72;;;8.92;51.03
50292;BME280;36190;54.980;73.388;2023-04-22T04:24:10;100854.25;;;9.08;50.57
50292;BME280;36190;54.980;73.388;2023-04-22T04:26:37;100855.34;;;9.16;50.43
50292;BME280;36190;54.980;73.388;2023-04-22T04:29:04;100848.34;;;9.15;50.32
50292;BME280;36190;54.980;73.388;2023-04-22T04:31:33;100847.22;;;9.17;50.45
50292;BME280;36190;54.980;73.388;2023-04-22T04:34:02;100859.53;;;9.18;50.23
50292;BME280;36190;54.980;73.388;2023-04-22T04:36:30;100845.63;;;9.25;50.14
50292;BME280;36190;54.980;73.388;2023-04-22T04:38:58;100849.06;;;9.35;50.13
50292;BME280;36190;54.980;73.388;2023-04-22T04:41:25;100868.94;;;9.41;50.04
50292;BME280;36190;54.980;73.388;2023-04-22T04:43:54;100848.78;;;9.38;49.84
50292;BME280;36190;54.980;73.388;2023-04-22T04:46:21;100851.06;;;9.33;50.24
50292;BME280;36190;54.980;73.388;2023-04-22T04:48:49;100843.88;;;9.33;50.21
50292;BME280;36190;54.980;73.388;2023-04-22T04:51:20;100839.25;;;9.35;50.19
50292;BME280;36190;54.980;73.388;2023-04-22T04:53:47;100836.09;;;9.50;50.15
50292;BME280;36190;54.980;73.388;2023-04-22T04:56:15;100834.56;;;9.66;49.75
50292;BME280;36190;54.980;73.388;2023-04-22T04:58:42;100829.72;;;9.79;49.71
50292;BME280;36190;54.980;73.388;2023-04-22T05:01:10;100828.81;;;9.88;49.51
50292;BME280;36190;54.980;73.388;2023-04-22T05:03:37;100818.41;;;10.03;49.58
50292;BME280;36190;54.980;73.388;2023-04-22T05:06:05;100818.72;;;10.18;49.53
50292;BME280;36190;54.980;73.388;2023-04-22T05:08:34;100814.03;;;10.39;49.39
50292;BME280;36190;54.980;73.388;2023-04-22T05:11:02;100815.66;;;10.58;49.09
50292;BME280;36190;54.980;73.388;2023-04-22T05:13:29;100826.94;;;10.78;48.87
50292;BME280;36190;54.980;73.388;2023-04-22T05:15:57;100820.19;;;10.92;48.61
50292;BME280;36190;54.980;73.388;2023-04-22T05:18:24;100826.56;;;10.99;48.31
50292;BME280;36190;54.980;73.388;2023-04-22T05:20:52;100827.22;;;11.02;48.33
50292;BME280;36190;54.980;73.388;2023-04-22T05:23:19;100816.88;;;11.07;48.49
50292;BME280;36190;54.980;73.388;2023-04-22T05:25:48;100823.22;;;11.06;48.49
50292;BME280;36190;54.980;73.388;2023-04-22T05:28:16;100822.25;;;11.15;48.53
50292;BME280;36190;54.980;73.388;2023-04-22T05:30:43;100822.28;;;11.23;48.52
50292;BME280;36190;54.980;73.388;2023-04-22T05:33:11;100824.97;;;11.32;48.37
50292;BME280;36190;54.980;73.388;2023-04-22T05:35:38;100837.22;;;11.42;48.39
50292;BME280;36190;54.980;73.388;2023-04-22T05:38:07;100824.22;;;11.48;48.29
50292;BME280;36190;54.980;73.388;2023-04-22T05:40:35;100832.88;;;11.50;48.25
50292;BME280;36190;54.980;73.388;2023-04-22T05:43:04;100828.06;;;11.53;48.44
50292;BME280;36190;54.980;73.388;2023-04-22T05:45:31;100830.75;;;11.62;48.30
50292;BME280;36190;54.980;73.388;2023-04-22T05:47:59;100833.44;;;11.70;48.20
50292;BME280;36190;54.980;73.388;2023-04-22T05:50:26;100846.81;;;11.78;48.02
50292;BME280;36190;54.980;73.388;2023-04-22T05:52:54;100838.13;;;11.85;48.04
50292;BME280;36190;54.980;73.388;2023-04-22T05:55:21;100820.44;;;11.92;48.00
50292;BME280;36190;54.980;73.388;2023-04-22T05:57:49;100825.78;;;12.00;47.89
50292;BME280;36190;54.980;73.388;2023-04-22T06:00:18;100822.47;;;12.15;48.03
50292;BME280;36190;54.980;73.388;2023-04-22T06:02:46;100819.09;;;12.29;47.54
50292;BME280;36190;54.980;73.388;2023-04-22T06:05:13;100817.41;;;12.45;47.25
50292;BME280;36190;54.980;73.388;2023-04-22T06:07:41;100810.84;;;12.56;47.22
50292;BME280;36190;54.980;73.388;2023-04-22T06:10:08;100816.84;;;12.66;46.91
50292;BME280;36190;54.980;73.388;2023-04-22T06:12:36;100795.25;;;12.68;46.71
50292;BME280;36190;54.980;73.388;2023-04-22T06:15:04;100819.00;;;12.71;46.55
50292;BME280;36190;54.980;73.388;2023-04-22T06:17:33;100813.66;;;12.71;46.62
50292;BME280;36190;54.980;73.388;2023-04-22T06:20:01;100802.94;;;12.71;46.55
50292;BME280;36190;54.980;73.388;2023-04-22T06:22:28;100808.28;;;12.71;46.40
50292;BME280;36190;54.980;73.388;2023-04-22T06:24:56;100801.59;;;12.75;46.57
50292;BME280;36190;54.980;73.388;2023-04-22T06:27:23;100800.22;;;12.79;46.41
50292;BME280;36190;54.980;73.388;2023-04-22T06:29:51;100800.03;;;12.89;46.19
50292;BME280;36190;54.980;73.388;2023-04-22T06:32:18;100799.19;;;12.97;46.13
50292;BME280;36190;54.980;73.388;2023-04-22T06:34:47;100794.47;;;12.99;45.75
50292;BME280;36190;54.980;73.388;2023-04-22T06:37:15;100799.69;;;13.00;45.90
50292;BME280;36190;54.980;73.388;2023-04-22T06:39:42;100810.50;;;13.07;45.69
50292;BME280;36190;54.980;73.388;2023-04-22T06:42:10;100805.16;;;13.07;45.85
50292;BME280;36190;54.980;73.388;2023-04-22T06:44:37;100793.78;;;13.05;45.75
50292;BME280;36190;54.980;73.388;2023-04-22T06:47:05;100798.78;;;13.08;45.89
50292;BME280;36190;54.980;73.388;2023-04-22T06:49:32;100798.44;;;13.11;45.90
50292;BME280;36190;54.980;73.388;2023-04-22T06:52:04;100794.03;;;13.18;45.69
50292;BME280;36190;54.980;73.388;2023-04-22T06:54:32;100790.13;;;13.29;45.75
50292;BME280;36190;54.980;73.388;2023-04-22T06:56:59;100775.84;;;13.45;45.49
50292;BME280;36190;54.980;73.388;2023-04-22T06:59:26;100769.53;;;13.61;45.21
50292;BME280;36190;54.980;73.388;2023-04-22T07:01:54;100770.94;;;13.72;45.21
50292;BME280;36190;54.980;73.388;2023-04-22T07:04:21;100779.34;;;13.93;45.02
50292;BME280;36190;54.980;73.388;2023-04-22T07:06:49;100767.03;;;13.98;44.80
50292;BME280;36190;54.980;73.388;2023-04-22T07:09:18;100767.34;;;14.03;44.83
50292;BME280;36190;54.980;73.388;2023-04-22T07:11:45;100763.47;;;14.06;44.63
50292;BME280;36190;54.980;73.388;2023-04-22T07:14:13;100769.41;;;14.32;44.48
50292;BME280;36190;54.980;73.388;2023-04-22T07:16:40;100761.34;;;14.47;44.30
50292;BME280;36190;54.980;73.388;2023-04-22T07:19:08;100763.31;;;14.53;44.15
50292;BME280;36190;54.980;73.388;2023-04-22T07:21:35;100745.59;;;14.58;44.10
50292;BME280;36190;54.980;73.388;2023-04-22T07:24:03;100757.72;;;14.69;44.06
50292;BME280;36190;54.980;73.388;2023-04-22T07:26:32;100751.09;;;14.80;44.01
50292;BME280;36190;54.980;73.388;2023-04-22T07:28:59;100746.25;;;14.91;43.88
50292;BME280;36190;54.980;73.388;2023-04-22T07:31:27;100746.69;;;15.09;43.58
50292;BME280;36190;54.980;73.388;2023-04-22T07:33:54;100736.72;;;15.25;43.22
50292;BME280;36190;54.980;73.388;2023-04-22T07:36:22;100742.84;;;15.40;43.00
50292;BME280;36190;54.980;73.388;2023-04-22T07:38:49;100740.94;;;15.56;42.70
50292;BME280;36190;54.980;73.388;2023-04-22T07:41:17;100739.41;;;15.68;42.46
50292;BME280;36190;54.980;73.388;2023-04-22T07:43:46;100729.09;;;15.72;42.47
50292;BME280;36190;54.980;73.388;2023-04-22T07:46:13;100742.34;;;15.74;42.31
50292;BME280;36190;54.980;73.388;2023-04-22T07:48:41;100735.38;;;15.79;42.33
50292;BME280;36190;54.980;73.388;2023-04-22T07:51:09;100724.94;;;15.91;42.05
50292;BME280;36190;54.980;73.388;2023-04-22T07:53:37;100724.69;;;16.21;41.62
50292;BME280;36190;54.980;73.388;2023-04-22T07:56:04;100723.78;;;16.43;41.33
50292;BME280;36190;54.980;73.388;2023-04-22T07:58:31;100720.56;;;16.61;40.72
50292;BME280;36190;54.980;73.388;2023-04-22T08:01:00;100714.81;;;16.77;40.55
50292;BME280;36190;54.980;73.388;2023-04-22T08:03:28;100720.28;;;16.91;40.31
50292;BME280;36190;54.980;73.388;2023-04-22T08:05:56;100714.53;;;17.08;39.97
50292;BME280;36190;54.980;73.388;2023-04-22T08:08:24;100733.22;;;17.23;39.70
50292;BME280;36190;54.980;73.388;2023-04-22T08:10:51;100732.84;;;17.32;39.39
50292;BME280;36190;54.980;73.388;2023-04-22T08:13:19;100717.50;;;17.40;39.13
50292;BME280;36190;54.980;73.388;2023-04-22T08:15:46;100715.44;;;17.55;38.93
50292;BME280;36190;54.980;73.388;2023-04-22T08:18:15;100740.97;;;17.73;38.30
50292;BME280;36190;54.980;73.388;2023-04-22T08:20:43;100721.91;;;17.75;37.88
50292;BME280;36190;54.980;73.388;2023-04-22T08:23:10;100712.13;;;17.80;37.58
50292;BME280;36190;54.980;73.388;2023-04-22T08:25:37;100710.44;;;17.93;37.57
50292;BME280;36190;54.980;73.388;2023-04-22T08:28:05;100704.00;;;18.21;37.23
50292;BME280;36190;54.980;73.388;2023-04-22T08:30:32;100726.16;;;18.43;36.59
50292;BME280;36190;54.980;73.388;2023-04-22T08:33:00;100733.63;;;18.48;36.21
50292;BME280;36190;54.980;73.388;2023-04-22T08:35:29;100725.97;;;18.45;35.94
50292;BME280;36190;54.980;73.388;2023-04-22T08:37:56;100697.66;;;18.47;35.77
50292;BME280;36190;54.980;73.388;2023-04-22T08:40:24;100719.44;;;18.59;35.58
50292;BME280;36190;54.980;73.388;2023-04-22T08:42:53;100732.97;;;18.59;35.29
50292;BME280;36190;54.980;73.388;2023-04-22T08:45:20;100711.19;;;18.47;35.22
50292;BME280;36190;54.980;73.388;2023-04-22T08:47:48;100705.16;;;18.52;35.44
50292;BME280;36190;54.980;73.388;2023-04-22T08:50:16;100712.28;;;18.85;35.13
50292;BME280;36190;54.980;73.388;2023-04-22T08:52:47;100701.34;;;19.12;34.74
50292;BME280;36190;54.980;73.388;2023-04-22T08:55:15;100711.88;;;19.52;34.31
50292;BME280;36190;54.980;73.388;2023-04-22T08:57:43;100723.03;;;19.63;33.67
50292;BME280;36190;54.980;73.388;2023-04-22T09:00:11;100719.69;;;19.35;33.73
50292;BME280;36190;54.980;73.388;2023-04-22T09:02:40;100713.81;;;19.13;33.87
50292;BME280;36190;54.980;73.388;2023-04-22T09:05:11;100715.13;;;19.04;34.19
50292;BME280;36190;54.980;73.388;2023-04-22T09:07:40;100693.69;;;19.09;34.01
50292;BME280;36190;54.980;73.388;2023-04-22T09:10:10;100701.16;;;19.39;33.45
50292;BME280;36190;54.980;73.388;2023-04-22T09:12:39;100709.34;;;19.58;32.94
50292;BME280;36190;54.980;73.388;2023-04-22T09:15:08;100705.31;;;19.67;32.67
50292;BME280;36190;54.980;73.388;2023-04-22T09:17:35;100694.16;;;19.82;32.63
50292;BME280;36190;54.980;73.388;2023-04-22T09:20:06;100698.63;;;19.95;32.33
50292;BME280;36190;54.980;73.388;2023-04-22T09:22:38;100694.88;;;19.96;32.08
50292;BME280;36190;54.980;73.388;2023-04-22T09:25:15;100694.44;;;19.99;32.17
50292;BME280;36190;54.980;73.388;2023-04-22T09:27:47;100706.94;;;20.00;31.83
50292;BME280;36190;54.980;73.388;2023-04-22T09:30:16;100690.69;;;20.00;32.03
50292;BME280;36190;54.980;73.388;2023-04-22T09:32:51;100697.28;;;20.04;31.58
50292;BME280;36190;54.980;73.388;2023-04-22T09:35:25;100676.50;;;19.98;31.72
50292;BME280;36190;54.980;73.388;2023-04-22T09:37:53;100684.81;;;20.03;31.70
50292;BME280;36190;54.980;73.388;2023-04-22T09:40:22;100687.22;;;20.12;31.72
50292;BME280;36190;54.980;73.388;2023-04-22T09:42:52;100687.28;;;20.24;31.57
50292;BME280;36190;54.980;73.388;2023-04-22T09:45:30;100691.66;;;20.25;31.31
50292;BME280;36190;54.980;73.388;2023-04-22T09:48:00;100682.72;;;20.24;31.22
50292;BME280;36190;54.980;73.388;2023-04-22T09:50:28;100671.78;;;20.50;31.14
50292;BME280;36190;54.980;73.388;2023-04-22T09:52:57;100660.91;;;20.68;30.72
50292;BME280;36190;54.980;73.388;2023-04-22T09:55:28;100681.72;;;21.05;30.36
50292;BME280;36190;54.980;73.388;2023-04-22T09:57:57;100681.84;;;21.22;30.41
50292;BME280;36190;54.980;73.388;2023-04-22T10:00:27;100680.47;;;21.43;30.01
50292;BME280;36190;54.980;73.388;2023-04-22T10:02:55;100675.19;;;21.61;29.72
50292;BME280;36190;54.980;73.388;2023-04-22T10:05:22;100674.94;;;21.38;29.48
50292;BME280;36190;54.980;73.388;2023-04-22T10:07:51;100675.44;;;21.05;29.94
50292;BME280;36190;54.980;73.388;2023-04-22T10:10:19;100661.63;;;20.94;30.02
50292;BME280;36190;54.980;73.388;2023-04-22T10:12:48;100664.34;;;20.94;30.04
50292;BME280;36190;54.980;73.388;2023-04-22T10:15:16;100653.28;;;20.77;30.09
50292;BME280;36190;54.980;73.388;2023-04-22T10:17:45;100651.94;;;20.68;30.29
50292;BME280;36190;54.980;73.388;2023-04-22T10:20:15;100635.84;;;20.54;30.15
50292;BME280;36190;54.980;73.388;2023-04-22T10:22:44;100622.66;;;20.27;30.41
50292;BME280;36190;54.980;73.388;2023-04-22T10:25:13;100644.63;;;20.19;30.63
50292;BME280;36190;54.980;73.388;2023-04-22T10:27:54;100651.66;;;19.83;30.94
50292;BME280;36190;54.980;73.388;2023-04-22T10:30:28;100637.44;;;19.43;31.51
50292;BME280;36190;54.980;73.388;2023-04-22T10:33:34;100635.91;;;19.29;31.86
50292;BME280;36190;54.980;73.388;2023-04-22T10:36:08;100628.78;;;19.34;31.78
50292;BME280;36190;54.980;73.388;2023-04-22T10:38:36;100628.28;;;19.44;31.74
50292;BME280;36190;54.980;73.388;2023-04-22T10:41:04;100631.28;;;19.36;32.02
50292;BME280;36190;54.980;73.388;2023-04-22T10:43:42;100659.19;;;19.30;32.20
50292;BME280;36190;54.980;73.388;2023-04-22T10:49:10;100658.53;;;19.60;31.95
50292;BME280;36190;54.980;73.388;2023-04-22T10:51:38;100643.13;;;19.60;32.13
50292;BME280;36190;54.980;73.388;2023-04-22T10:54:06;100652.84;;;19.43;32.22
50292;BME280;36190;54.980;73.388;2023-04-22T10:56:34;100640.97;;;19.18;32.49
50292;BME280;36190;54.980;73.388;2023-04-22T10:59:16;100652.72;;;18.99;32.72
50292;BME280;36190;54.980;73.388;2023-04-22T11:01:43;100664.28;;;18.80;32.81
50292;BME280;36190;54.980;73.388;2023-04-22T11:04:20;100665.78;;;18.69;32.79
50292;BME280;36190;54.980;73.388;2023-04-22T11:07:12;100669.22;;;18.45;32.95
50292;BME280;36190;54.980;73.388;2023-04-22T11:09:43;100706.09;;;17.98;33.61
50292;BME280;36190;54.980;73.388;2023-04-22T11:15:12;100663.25;;;16.94;35.45
50292;BME280;36190;54.980;73.388;2023-04-22T11:17:41;100678.31;;;16.68;36.45
50292;BME280;36190;54.980;73.388;2023-04-22T11:20:10;100706.13;;;16.33;36.63
50292;BME280;36190;54.980;73.388;2023-04-22T11:22:41;100676.81;;;16.10;36.46
50292;BME280;36190;54.980;73.388;2023-04-22T11:25:08;100675.28;;;15.94;37.02
50292;BME280;36190;54.980;73.388;2023-04-22T11:27:37;100683.56;;;15.71;37.29
50292;BME280;36190;54.980;73.388;2023-04-22T11:30:06;100667.88;;;15.52;37.80
50292;BME280;36190;54.980;73.388;2023-04-22T11:32:36;100680.03;;;15.42;38.09
50292;BME280;36190;54.980;73.388;2023-04-22T11:35:06;100684.09;;;15.37;38.23
50292;BME280;36190;54.980;73.388;2023-04-22T11:37:39;100691.09;;;15.32;38.28
50292;BME280;36190;54.980;73.388;2023-04-22T11:40:08;100684.63;;;15.26;38.33
50292;BME280;36190;54.980;73.388;2023-04-22T11:42:36;100684.88;;;15.31;38.38
50292;BME280;36190;54.980;73.388;2023-04-22T11:45:05;100700.41;;;15.36;38.50
50292;BME280;36190;54.980;73.388;2023-04-22T11:47:35;100702.47;;;15.34;39.05
50292;BME280;36190;54.980;73.388;2023-04-22T11:50:04;100706.78;;;15.28;39.28
50292;BME280;36190;54.980;73.388;2023-04-22T11:52:45;100686.78;;;15.16;39.58
50292;BME280;36190;54.980;73.388;2023-04-22T11:55:14;100702.53;;;15.19;39.74
50292;BME280;36190;54.980;73.388;2023-04-22T11:57:43;100704.31;;;15.11;40.09
50292;BME280;36190;54.980;73.388;2023-04-22T12:00:13;100718.78;;;15.10;40.62
50292;BME280;36190;54.980;73.388;2023-04-22T12:02:54;100704.19;;;14.98;41.80
50292;BME280;36190;54.980;73.388;2023-04-22T12:05:32;100710.63;;;14.82;42.75
50292;BME280;36190;54.980;73.388;2023-04-22T12:08:00;100695.50;;;14.66;42.94
50292;BME280;36190;54.980;73.388;2023-04-22T12:10:28;100692.38;;;14.62;43.49
50292;BME280;36190;54.980;73.388;2023-04-22T12:12:56;100696.75;;;14.63;43.44
50292;BME280;36190;54.980;73.388;2023-04-22T12:15:24;100688.69;;;14.63;43.56
50292;BME280;36190;54.980;73.388;2023-04-22T12:17:53;100685.16;;;14.63;44.04
50292;BME280;36190;54.980;73.388;2023-04-22T12:20:21;100687.84;;;14.78;43.78
50292;BME280;36190;54.980;73.388;2023-04-22T12:22:51;100690.63;;;14.84;43.82
50292;BME280;36190;54.980;73.388;2023-04-22T12:25:19;100687.16;;;14.91;43.64
50292;BME280;36190;54.980;73.388;2023-04-22T12:27:47;100684.91;;;14.94;43.63
50292;BME280;36190;54.980;73.388;2023-04-22T12:30:14;100684.16;;;15.01;43.69
50292;BME280;36190;54.980;73.388;2023-04-22T12:32:42;100690.25;;;15.09;43.44
50292;BME280;36190;54.980;73.388;2023-04-22T12:35:11;100684.88;;;15.09;43.44
50292;BME280;36190;54.980;73.388;2023-04-22T12:37:38;100693.84;;;15.17;43.28
50292;BME280;36190;54.980;73.388;2023-04-22T12:40:07;100697.53;;;15.16;43.09
50292;BME280;36190;54.980;73.388;2023-04-22T12:42:35;100687.19;;;15.12;43.21
50292;BME280;36190;54.980;73.388;2023-04-22T12:45:03;100680.16;;;15.11;43.35
50292;BME280;36190;54.980;73.388;2023-04-22T12:47:30;100681.16;;;15.10;43.37
50292;BME280;36190;54.980;73.388;2023-04-22T12:49:58;100692.50;;;15.06;43.28
50292;BME280;36190;54.980;73.388;2023-04-22T12:52:27;100688.59;;;15.08;43.22
50292;BME280;36190;54.980;73.388;2023-04-22T12:54:55;100683.84;;;15.10;43.25